Tiempo atmosférico en la estación meteorológica de Linares, Jaén (515 m.)



Fecha
DESCASC
Temp. máxima en grados centígrados (hora)
DESCASC
Temp. mínima en grados centígrados (hora)
DESCASC
Temp. media en grados centígrados
DESCASC
Racha de viento máxima en m/sg (hora)
DESCASC
Velocidad máxima media en intervalos de 10 minutos(hora)
DESCASC
Precipitaciones diarias en mm
DESCASC
Precipitaciones de 00:00 a 06:00 en mm
DESCASC
Precipitaciones de 06:00 a 12:00 en mm
DESCASC
Precipitaciones de 12:00 a 18:00 en mm
DESCASC
Precipitaciones de 18:00 a 24:00 en mm
DESCASC
16-06-2019 30.4 (19:20) 16.7 (07:10) 23.6 7.22 (18:00) 3.61 (18:40) 0 0 0 0 0
15-06-2019 29.4 (19:30) 11.7 (07:20) 20.5 8.06 (00:30) 3.33 (00:30) 0 0 0 0 0
14-06-2019 24.6 (18:00) 16.3 (06:50) 20.4 11.11 (16:50) 4.17 (16:40) 0 0 0 0 0
13-06-2019 29.2 (19:10) 15.6 (00:00) 22.4 7.78 (21:50) 3.33 (20:40) 0 0 0 0 0
12-06-2019 28.7 (19:10) 15.6 (00:00) 22.2 7.5 (01:00) 3.61 (01:00) 0 0 0 0 0
11-06-2019 28.2 (17:40) 13.3 (00:00) 20.8 10.28 (20:10) 6.11 (19:40) 0 0 0 0 0
10-06-2019 29.1 (19:00) 14.3 (00:00) 21.7 8.33 (00:20) 3.89 (20:30) 0 0 0 0 0
09-06-2019 28.6 (18:40) 16.8 (00:00) 22.7 9.72 (22:50) 3.61 (04:20) 0 0 0 0 0
08-06-2019 31 (18:10) 16 (00:00) 23.5 8.33 (23:59) 4.17 (20:00) 0 0 0 0 0
07-06-2019 26.4 (19:50) 13.7 (00:00) 20 9.17 (01:10) 2.78 (01:10) 0 0 0 0 0
06-06-2019 27.3 (16:50) 11.6 (00:00) 19.4 10.83 (17:40) 4.72 (19:10) 0 0 0 0 0
05-06-2019 23.9 (19:40) 13.7 (00:00) 18.8 9.72 (13:10) 4.72 (06:20) 0 0 0 0 0
04-06-2019 31.7 (16:20) 18 (00:00) 24.9 12.22 (18:00) 4.17 (18:00) 0 0 0 0 0
03-06-2019 35.7 (19:20) 18.5 (00:00) 27.1 7.5 (19:00) 3.33 (16:20) 0 0 0 0 0
02-06-2019 34.9 (18:20) 17 (00:00) 26 5 (19:10) 2.22 (15:40) 0 0 0 0 0
01-06-2019 34.5 (19:40) 18.5 (00:00) 26.5 6.39 (18:30) 2.78 (22:30) 0 0 0 0 0
31-05-2019 32.6 (16:50) 17.9 (00:00) 25.2 7.5 (22:20) 3.33 (22:00) 0 0 0 0 0
30-05-2019 31.3 (19:00) 16.6 (00:00) 23.9 7.22 (00:30) 3.33 (00:30) 0 0 0 0 0
29-05-2019 29.6 (18:20) 17.7 (00:00) 23.7 9.44 (04:30) 4.72 (20:20) 0 0 0 0 0
28-05-2019 32.6 (18:30) 18.4 (00:00) 25.5 9.44 (21:40) 4.72 (21:40) 0 0 0 0 0
27-05-2019 32.2 (19:40) 16.2 (00:00) 24.2 6.94 (20:30) 3.06 (20:40) 0 0 0 0 0
26-05-2019 28.7 (19:00) 15.2 (00:00) 22 7.5 (16:20) 3.89 (16:50) 0 0 0 0 0
25-05-2019 26.9 (18:10) 14 (00:00) 20.4 7.5 (12:40) 3.61 (10:30) 0 0 0 0 0
24-05-2019 28.4 (18:00) 17.3 (00:00) 22.8 10 (20:50) 5.56 (20:50) 0 0 0 0 0
23-05-2019 31.4 (19:20) 16.2 (00:00) 23.8 6.94 (16:50) 3.06 (18:00) 0 0 0 0 0
22-05-2019 30.2 (19:00) 14.3 (00:00) 22.3 8.33 (15:30) 2.22 (15:20) 0 0 0 0 0
21-05-2019 27 (16:40) 14 (07:00) 20.5 6.67 (15:00) 2.5 (15:00) 0 0 0 0 0

Gráficas

Temp. máximas Temp. mínimas Temp. medias Precipitaciones Rachas de viento máximas Velocidades máximas media en intervalos de 10 minutos

Datos horarios

Fecha y hora oficial Temperatura (ºC) Velocidad del viento (km/h) Dirección del viento Racha (km/h) Dirección de racha Precipitación (mm) Presión (hPa) Tendencia (hPa) Humedad (%)
2019-06-19 23:00:00 24.5 5 Oeste 14 Oeste 0 -- -- 33
2019-06-19 22:00:00 25.3 2 Sudoeste 15 Oeste 0 -- -- 31
2019-06-19 21:00:00 28.6 4 Sudoeste 15 Oeste 0 -- -- 26
2019-06-19 20:00:00 29.8 5 Sudoeste 22 Oeste 0 -- -- 25
2019-06-19 19:00:00 30.3 6 Sudoeste 22 Oeste 0 -- -- 24
2019-06-19 18:00:00 29.5 8 Oeste 25 Oeste 0 -- -- 28
2019-06-19 17:00:00 28.8 6 Sudoeste 23 Oeste 0 -- -- 31
2019-06-19 16:00:00 27.4 7 Oeste 21 Oeste 0 -- -- 34
2019-06-19 15:00:00 26.2 5 Sudoeste 17 Oeste 0 -- -- 41
2019-06-19 14:00:00 24.3 6 Oeste 20 Oeste 0 -- -- 49
2019-06-19 13:00:00 21.4 9 Oeste 18 Noroeste 0 -- -- 61
2019-06-19 12:00:00 19.2 5 Oeste 17 Oeste 0 -- -- 70
2019-06-19 11:00:00 18.1 4 Sudoeste 13 Oeste 0 -- -- 77
2019-06-19 10:00:00 17.2 4 Oeste 13 Oeste 0 -- -- 81
2019-06-19 09:00:00 16.6 5 Oeste 13 Oeste 0 -- -- 83
2019-06-19 08:00:00 16.3 6 Oeste 17 Oeste 0 -- -- 83
2019-06-19 07:00:00 15.8 4 Oeste 21 Oeste 0 -- -- 84
2019-06-19 06:00:00 16.3 6 Oeste 17 Oeste 0 -- -- 80
2019-06-19 05:00:00 17.2 6 Oeste 17 Oeste 0 -- -- 76
2019-06-19 04:00:00 18 5 Oeste 21 Oeste 0 -- -- 72
2019-06-19 03:00:00 18.7 9 Oeste 26 Oeste 0 -- -- 69
2019-06-19 02:00:00 19.6 10 Oeste 23 Oeste 0 -- -- 64
2019-06-19 01:00:00 20.8 7 Oeste 19 Noroeste 0 -- -- 58
2019-06-19 00:00:00 21.9 8 Oeste 24 Noroeste 0 -- -- 51
2019-06-18 23:00:00 23.2 8 Oeste 28 Oeste 0 -- -- 43
2019-06-18 22:00:00 24.7 6 Oeste 26 Oeste 0 -- -- 34
2019-06-18 21:00:00 27.3 8 Oeste 27 Oeste 0 -- -- 24
2019-06-18 20:00:00 29.3 6 Sudoeste 29 Oeste 0 -- -- 21
2019-06-18 19:00:00 29.9 12 Oeste 35 Oeste 0 -- -- 20
2019-06-18 18:00:00 29.8 13 Oeste 38 Oeste 0 -- -- 21
2019-06-18 17:00:00 29.6 11 Oeste 33 Oeste 0 -- -- 22
2019-06-18 16:00:00 29 13 Oeste 37 Oeste 0 -- -- 27
2019-06-18 15:00:00 28.6 10 Oeste 31 Oeste 0 -- -- 28
2019-06-18 14:00:00 27.9 8 Oeste 23 Noroeste 0 -- -- 27
2019-06-18 13:00:00 26.2 8 Oeste 21 Oeste 0 -- -- 30
2019-06-18 12:00:00 25 6 Oeste 17 Oeste 0 -- -- 37
2019-06-18 11:00:00 22.4 6 Oeste 20 Oeste 0 -- -- 43
2019-06-18 10:00:00 19.6 4 Oeste 9 Oeste 0 -- -- 50
2019-06-18 09:00:00 18 3 Oeste 9 Oeste 0 -- -- 55
2019-06-18 08:00:00 17.4 0 Calma 7 Sur 0 -- -- 56
2019-06-18 07:00:00 17.4 0 Calma 4 Sur 0 -- -- 54
2019-06-18 06:00:00 18.3 0 Calma 10 Sur 0 -- -- 51
2019-06-18 05:00:00 19.1 2 Sur 10 Oeste 0 -- -- 47
2019-06-18 04:00:00 20.1 4 Oeste 14 Noroeste 0 -- -- 45
2019-06-18 03:00:00 21.1 2 Sudoeste 14 Oeste 0 -- -- 45
2019-06-18 02:00:00 22 5 Sudoeste 16 Oeste 0 -- -- 42
2019-06-18 01:00:00 23.2 4 Sudoeste 19 Oeste 0 -- -- 36
2019-06-18 00:00:00 24.5 4 Sudoeste 13 Sur 0 -- -- 30
2019-06-17 23:00:00 25.5 3 Sudoeste 10 Oeste 0 -- -- 26
2019-06-17 22:00:00 27.2 4 Oeste 15 Oeste 0 -- -- 24
2019-06-17 21:00:00 30.5 9 Oeste 23 Noroeste 0 -- -- 21
2019-06-17 20:00:00 32.4 6 Oeste 25 Oeste 0 -- -- 20
2019-06-17 19:00:00 32.8 6 Oeste 26 Oeste 0 -- -- 19
2019-06-17 18:00:00 32.3 9 Oeste 24 Oeste 0 -- -- 20
2019-06-17 17:00:00 32 7 Oeste 23 Oeste 0 -- -- 22
2019-06-17 16:00:00 31.7 5 Oeste 20 Oeste 0 -- -- 20
2019-06-17 15:00:00 29.6 9 Noroeste 20 Oeste 0 -- -- 22
2019-06-17 14:00:00 28.9 7 Oeste 16 Oeste 0 -- -- 27
2019-06-17 13:00:00 27.1 5 Oeste 15 Noroeste 0 -- -- 30
2019-06-17 12:00:00 25.1 4 Noroeste 10 Sudeste 0 -- -- 33
2019-06-17 11:00:00 23.2 4 Este 10 Sudeste 0 -- -- 37
2019-06-17 10:00:00 19.8 3 Oeste 9 Oeste 0 -- -- 44
2019-06-17 09:00:00 18 0 Calma 6 Noroeste 0 -- -- 49
2019-06-17 08:00:00 16.6 0 Calma 5 Sur 0 -- -- 52
2019-06-17 07:00:00 15.8 2 Sur 5 Sur 0 -- -- 54
2019-06-17 06:00:00 16.9 0 Calma 9 Sudeste 0 -- -- 51
2019-06-17 05:00:00 17.8 0 Calma 19 Oeste 0 -- -- 49
2019-06-17 04:00:00 18.7 5 Oeste 24 Oeste 0 -- -- 48
2019-06-17 03:00:00 19.9 6 Oeste 27 Oeste 0 -- -- 46
2019-06-17 02:00:00 21 5 Sudoeste 19 Oeste 0 -- -- 43
2019-06-17 01:00:00 22.1 4 Sudoeste 17 Sur 0 -- -- 38
2019-06-17 00:00:00 22.2 0 Calma 12 Oeste 0 -- -- 30
2019-06-16 23:00:00 23.9 4 Oeste 14 Oeste 0 -- -- 26
2019-06-16 22:00:00 25.2 5 Oeste 14 Oeste 0 -- -- 24
2019-06-16 21:00:00 28.2 7 Oeste 15 Oeste 0 -- -- 21
2019-06-16 20:00:00 29.3 6 Oeste 23 Oeste 0 -- -- 21
2019-06-16 19:00:00 30 8 Oeste 24 Oeste 0 -- -- 18
2019-06-16 18:00:00 29.6 8 Oeste 26 Oeste 0 -- -- 18
2019-06-16 17:00:00 29.2 8 Oeste 21 Noroeste 0 -- -- 18
2019-06-16 16:00:00 29.1 9 Noroeste 19 Noroeste 0 -- -- 19
2019-06-16 15:00:00 27.4 5 Oeste 17 Oeste 0 -- -- 21
2019-06-16 14:00:00 27.4 4 Sudoeste 15 Oeste 0 -- -- 21
2019-06-16 13:00:00 27.5 4 Oeste 12 Sur 0 -- -- 23
2019-06-16 12:00:00 26.6 5 Sur 12 Sur 0 -- -- 22
2019-06-16 11:00:00 23.8 2 Sudoeste 10 Sudeste 0 -- -- 26
2019-06-16 10:00:00 21.6 4 Sudeste 10 Sudeste 0 -- -- 30
2019-06-16 09:00:00 19.8 0 Calma 8 Sudeste 0 -- -- 31
2019-06-16 08:00:00 17.9 4 Sudeste 10 Este 0 -- -- 33
2019-06-16 07:00:00 16.8 4 Sudeste 9 Sudeste 0 -- -- 36
2019-06-16 06:00:00 18.1 2 Este 5 Este 0 -- -- 33
2019-06-16 05:00:00 18.8 0 Calma 12 Sudeste 0 -- -- 31
2019-06-16 04:00:00 19.2 6 Sudeste 13 Sudeste 0 -- -- 32
2019-06-16 03:00:00 20 9 Sudeste 16 Sudeste 0 -- -- 34
2019-06-16 02:00:00 20.1 0 Calma 5 Norte 0 -- -- 33
2019-06-16 01:00:00 21.4 5 Norte 8 Norte 0 -- -- 31
2019-06-16 00:00:00 21.5 0 Calma 8 Oeste 0 -- -- 31
2019-06-15 23:00:00 22.9 0 Calma 6 Sur 0 -- -- 27
2019-06-15 22:00:00 24 4 Sur 9 Sudoeste 0 -- -- 28
2019-06-15 21:00:00 27.7 3 Sudoeste 13 Oeste 0 -- -- 23
2019-06-15 20:00:00 29.3 5 Oeste 18 Oeste 0 -- -- 21
2019-06-15 19:00:00 28.8 8 Oeste 18 Noroeste 0 -- -- 21
2019-06-15 18:00:00 28 6 Sudoeste 19 Oeste 0 -- -- 21
2019-06-15 17:00:00 27.6 5 Sudoeste 19 Noroeste 0 -- -- 21
2019-06-15 16:00:00 26.3 4 Sur 18 Oeste 0 -- -- 23
2019-06-15 15:00:00 25.3 7 Oeste 19 Norte 0 -- -- 24
2019-06-15 14:00:00 23.7 5 Oeste 16 Noroeste 0 -- -- 30
2019-06-15 13:00:00 21.5 6 Noroeste 17 Norte 0 -- -- 35
2019-06-15 12:00:00 21 4 Noroeste 26 Norte 0 -- -- 38
2019-06-15 11:00:00 19.1 4 Este 12 Sudeste 0 -- -- 44
2019-06-15 10:00:00 15.9 3 Sudeste 10 Sudeste 0 -- -- 56
2019-06-15 09:00:00 14 0 Calma 5 Sur 0 -- -- 63
2019-06-15 08:00:00 12.4 0 Calma 3 Sur 0 -- -- 68
2019-06-15 07:00:00 12 0 Calma 5 Sur 0 -- -- 68
2019-06-15 06:00:00 12.5 0 Calma 5 Sudoeste 0 -- -- 66
2019-06-15 05:00:00 13.1 0 Calma 5 Sudeste 0 -- -- 63
2019-06-15 04:00:00 13.9 2 Sur 22 Oeste 0 -- -- 61
2019-06-15 03:00:00 14.9 7 Oeste 19 Sudoeste 0 -- -- 58
2019-06-15 02:00:00 15.8 5 Sudoeste 18 Sudoeste 0 -- -- 55
2019-06-15 01:00:00 16.9 8 Sudoeste 29 Oeste 0 -- -- 52
2019-06-15 00:00:00 18 8 Oeste 27 Oeste 0 -- -- 47
2019-06-14 23:00:00 19.3 7 Sudoeste 26 Oeste 0 -- -- 41
2019-06-14 22:00:00 20 3 Sudoeste 13 Sudoeste 0 -- -- 36
2019-06-14 21:00:00 22 6 Sudoeste 24 Oeste 0 -- -- 31
2019-06-14 20:00:00 24 6 Sudoeste 31 Oeste 0 -- -- 27
2019-06-14 19:00:00 24.1 13 Oeste 33 Noroeste 0 -- -- 28
2019-06-14 18:00:00 24.6 9 Sudoeste 37 Noroeste 0 -- -- 26
2019-06-14 17:00:00 24.5 12 Oeste 40 Oeste 0 -- -- 28
2019-06-14 16:00:00 24.2 12 Oeste 39 Sudoeste 0 -- -- 30
2019-06-14 15:00:00 23.8 14 Oeste 37 Noroeste 0 -- -- 35
2019-06-14 14:00:00 22.8 12 Oeste 33 Oeste 0 -- -- 41
2019-06-14 13:00:00 21.9 15 Oeste 33 Oeste 0 -- -- 46
2019-06-14 12:00:00 21.2 9 Oeste 28 Sudoeste 0 -- -- 46
2019-06-14 11:00:00 19.7 10 Oeste 26 Oeste 0 -- -- 50
2019-06-14 10:00:00 18.1 5 Sudoeste 25 Oeste 0 -- -- 52
2019-06-14 09:00:00 17.4 5 Oeste 19 Oeste 0 -- -- 53
2019-06-14 08:00:00 16.7 5 Oeste 21 Noroeste 0 -- -- 53
2019-06-14 07:00:00 16.3 10 Oeste 27 Oeste 0 -- -- 52
2019-06-14 06:00:00 17.1 11 Oeste 28 Oeste 0 -- -- 46
2019-06-14 05:00:00 17.9 9 Sudoeste 32 Oeste 0 -- -- 42
2019-06-14 04:00:00 18.7 12 Oeste 31 Oeste 0 -- -- 41
2019-06-14 03:00:00 19.7 8 Sudoeste 36 Oeste 0 -- -- 46
2019-06-14 02:00:00 21.2 8 Sudoeste 31 Oeste 0 -- -- 39
2019-06-14 01:00:00 22.1 10 Oeste 31 Oeste 0 -- -- 34
2019-06-14 00:00:00 22.9 6 Sudoeste 20 Oeste 0 -- -- 41
2019-06-13 23:00:00 23.6 8 Oeste 24 Oeste 0 -- -- 40
2019-06-13 22:00:00 24.7 8 Oeste 28 Oeste 0 -- -- 40
2019-06-13 21:00:00 26.3 9 Oeste 25 Oeste 0 -- -- 36
2019-06-13 20:00:00 27.9 6 Oeste 23 Oeste 0 -- -- 33
2019-06-13 19:00:00 29 10 Oeste 26 Oeste 0 -- -- 33
2019-06-13 18:00:00 28.5 6 Sudoeste 26 Oeste 0 -- -- 34
2019-06-13 17:00:00 28.6 10 Oeste 27 Oeste 0 -- -- 33
2019-06-13 16:00:00 27.4 8 Oeste 18 Oeste 0 -- -- 35
2019-06-13 15:00:00 26.3 9 Noroeste 18 Oeste 0 -- -- 37
2019-06-13 14:00:00 25 3 Este 14 Sudeste 0 -- -- 41
2019-06-13 13:00:00 21.9 4 Sudeste 15 Sudeste 0 -- -- 51
2019-06-13 12:00:00 21.3 4 Este 17 Este 0 -- -- 54
2019-06-13 11:00:00 20.2 4 Sudeste 10 Sudeste 0 -- -- 58
2019-06-13 10:00:00 18.8 2 Este 8 Noroeste 0 -- -- 66
2019-06-13 09:00:00 17.3 2 Nordeste 5 Sudeste 0 -- -- 71
2019-06-13 08:00:00 16 0 Calma 3 Sudeste 0 -- -- 74
2019-06-13 07:00:00 15.8 0 Calma 16 Oeste 0 -- -- 74
2019-06-13 06:00:00 16.4 9 Oeste 21 Sudoeste 0 -- -- 72
2019-06-13 05:00:00 17.3 9 Oeste 26 Oeste 0 -- -- 66
2019-06-13 04:00:00 18.5 6 Oeste 18 Oeste 0 -- -- 57
2019-06-13 03:00:00 19.4 4 Sudoeste 18 Oeste 0 -- -- 52
2019-06-13 02:00:00 20.7 4 Sudoeste 11 Oeste 0 -- -- 39
2019-06-13 01:00:00 21.2 3 Sur 7 Sur 0 -- -- 38
2019-06-13 00:00:00 22.3 2 Sudoeste 9 Oeste 0 -- -- 34
2019-06-12 23:00:00 22.7 3 Sudoeste 9 Oeste 0 -- -- 32
2019-06-12 22:00:00 24.3 3 Sudoeste 17 Oeste 0 -- -- 31
2019-06-12 21:00:00 27 7 Oeste 18 Noroeste 0 -- -- 27
2019-06-12 20:00:00 28.3 9 Oeste 23 Oeste 0 -- -- 26
2019-06-12 19:00:00 28.3 12 Noroeste 26 Noroeste 0 -- -- 24
2019-06-12 18:00:00 27.7 5 Sudoeste 26 Oeste 0 -- -- 24
2019-06-12 17:00:00 27 5 Nordeste 18 Oeste 0 -- -- 26
2019-06-12 16:00:00 27 8 Oeste 20 Oeste 0 -- -- 26
2019-06-12 15:00:00 26.1 6 Sudoeste 20 Oeste 0 -- -- 27
2019-06-12 14:00:00 24.7 7 Noroeste 16 Oeste 0 -- -- 32
2019-06-12 13:00:00 24.2 6 Noroeste 18 Oeste 0 -- -- 35
2019-06-12 12:00:00 23.1 5 Oeste 15 Oeste 0 -- -- 37
2019-06-12 11:00:00 21.7 5 Oeste 14 Oeste 0 -- -- 43
2019-06-12 10:00:00 19.4 4 Sudeste 13 Sudeste 0 -- -- 54
2019-06-12 09:00:00 18 3 Este 9 Sudeste 0 -- -- 56
2019-06-12 08:00:00 16.5 3 Nordeste 9 Este 0 -- -- 58
2019-06-12 07:00:00 15.7 3 Este 9 Sudeste 0 -- -- 56
2019-06-12 06:00:00 16.2 4 Este 9 Nordeste 0 -- -- 51
2019-06-12 05:00:00 16.5 2 Este 14 Nordeste 0 -- -- 40
2019-06-12 04:00:00 17.5 4 Este 22 Nordeste 0 -- -- 36
2019-06-12 03:00:00 18 10 Nordeste 23 Nordeste 0 -- -- 33
2019-06-12 02:00:00 18.5 10 Nordeste 23 Nordeste 0 -- -- 29
2019-06-12 01:00:00 19.2 13 Nordeste 27 Nordeste 0 -- -- 30
2019-06-12 00:00:00 19.7 9 Nordeste 28 Nordeste 0 -- -- 32
2019-06-11 23:00:00 20.4 14 Nordeste 32 Nordeste 0 -- -- 32
2019-06-11 22:00:00 21.4 16 Nordeste 33 Nordeste 0 -- -- 32
2019-06-11 21:00:00 23.3 17 Nordeste 37 Nordeste 0 -- -- 30
2019-06-11 20:00:00 25.1 17 Norte 34 Norte 0 -- -- 28
2019-06-11 19:00:00 27.8 9 Noroeste 24 Noroeste 0 -- -- 23
2019-06-11 18:00:00 27.9 11 Noroeste 29 Oeste 0 -- -- 24
2019-06-11 17:00:00 28 8 Sudoeste 26 Oeste 0 -- -- 27
2019-06-11 16:00:00 26.7 10 Oeste 24 Oeste 0 -- -- 30
2019-06-11 15:00:00 25.8 6 Sudoeste 19 Oeste 0 -- -- 30
2019-06-11 14:00:00 25.1 6 Oeste 30 Oeste 0 -- -- 31
2019-06-11 13:00:00 23.2 10 Oeste 26 Noroeste 0 -- -- 34
2019-06-11 12:00:00 21.2 7 Sudoeste 21 Oeste 0 -- -- 42
2019-06-11 11:00:00 18.9 8 Oeste 20 Oeste 0 -- -- 54
2019-06-11 10:00:00 16.3 8 Oeste 15 Oeste 0 -- -- 68
2019-06-11 09:00:00 14.6 3 Oeste 13 Oeste 0 -- -- 75
2019-06-11 08:00:00 13.6 3 Oeste 12 Oeste 0 -- -- 78
2019-06-11 07:00:00 13.4 5 Oeste 13 Oeste 0 -- -- 76
2019-06-11 06:00:00 13.9 6 Oeste 16 Oeste 0 -- -- 73
2019-06-11 05:00:00 14.4 4 Oeste 18 Oeste 0 -- -- 70
2019-06-11 04:00:00 15.2 5 Sudoeste 26 Oeste 0 -- -- 66
2019-06-11 03:00:00 16.1 5 Sudoeste 24 Oeste 0 -- -- 61
2019-06-11 02:00:00 17.3 4 Sudoeste 26 Oeste 0 -- -- 56
2019-06-11 01:00:00 18.7 6 Sudoeste 24 Oeste 0 -- -- 51
2019-06-11 00:00:00 20.5 5 Sudoeste 27 Oeste 0 -- -- 44
2019-06-10 23:00:00 22.1 6 Sudoeste 14 Oeste 0 -- -- 27
2019-06-10 22:00:00 23.8 7 Oeste 22 Oeste 0 -- -- 24
2019-06-10 21:00:00 26.3 12 Oeste 26 Oeste 0 -- -- 20
2019-06-10 20:00:00 28.6 9 Oeste 23 Oeste 0 -- -- 20
2019-06-10 19:00:00 29.1 8 Oeste 24 Oeste 0 -- -- 22
2019-06-10 18:00:00 27.9 7 Sudoeste 19 Noroeste 0 -- -- 23
2019-06-10 17:00:00 27.9 6 Sudoeste 23 Oeste 0 -- -- 24
2019-06-10 16:00:00 27.1 5 Sur 17 Oeste 0 -- -- 24
2019-06-10 15:00:00 26.4 6 Sudoeste 22 Noroeste 0 -- -- 24
2019-06-10 14:00:00 25 6 Sudoeste 22 Oeste 0 -- -- 24
2019-06-10 13:00:00 24 5 Oeste 21 Oeste 0 -- -- 31
2019-06-10 12:00:00 23.2 6 Oeste 20 Oeste 0 -- -- 32
2019-06-10 11:00:00 20.5 7 Oeste 15 Oeste 0 -- -- 42
2019-06-10 10:00:00 17.6 3 Oeste 9 Oeste 0 -- -- 51
2019-06-10 09:00:00 15.4 2 Sudoeste 9 Oeste 0 -- -- 57
2019-06-10 08:00:00 14.6 3 Oeste 7 Sudoeste 0 -- -- 59
2019-06-10 07:00:00 14.3 2 Sur 8 Sudeste 0 -- -- 59
2019-06-10 06:00:00 14.5 0 Calma 6 Sudoeste 0 -- -- 58
2019-06-10 05:00:00 15.3 0 Calma 7 Oeste 0 -- -- 55
2019-06-10 04:00:00 15.8 0 Calma 9 Sur 0 -- -- 53
2019-06-10 03:00:00 16.6 2 Sudoeste 14 Oeste 0 -- -- 51
2019-06-10 02:00:00 17.7 4 Sudoeste 14 Sudoeste 0 -- -- 46
2019-06-10 01:00:00 19.2 5 Sudoeste 30 Oeste 0 -- -- 42
2019-06-10 00:00:00 20.7 10 Oeste 29 Oeste 0 -- -- 35
2019-06-09 23:00:00 22.4 10 Sudoeste 35 Oeste 0 -- -- 31
2019-06-09 22:00:00 24.2 5 Sudoeste 26 Oeste 0 -- -- 32
2019-06-09 21:00:00 26 6 Sudoeste 23 Oeste 0 -- -- 31
2019-06-09 20:00:00 27.8 5 Sudoeste 24 Oeste 0 -- -- 29
2019-06-09 19:00:00 28.2 6 Sudoeste 22 Oeste 0 -- -- 29
2019-06-09 18:00:00 28.2 7 Oeste 26 Oeste 0 -- -- 29
2019-06-09 17:00:00 28 9 Oeste 30 Noroeste 0 -- -- 29
2019-06-09 16:00:00 27.5 8 Oeste 27 Sudoeste 0 -- -- 31
2019-06-09 15:00:00 27.1 7 Oeste 27 Oeste 0 -- -- 33
2019-06-09 14:00:00 26.1 8 Sudoeste 25 Oeste 0 -- -- 34
2019-06-09 13:00:00 24.9 7 Noroeste 19 Oeste 0 -- -- 36
2019-06-09 12:00:00 23.1 8 Oeste 22 Oeste 0 -- -- 39
2019-06-09 11:00:00 21.1 5 Sudoeste 15 Oeste 0 -- -- 45
2019-06-09 10:00:00 18.5 6 Oeste 17 Oeste 0 -- -- 51
2019-06-09 09:00:00 16.9 3 Sudoeste 18 Oeste 0 -- -- 55
2019-06-09 08:00:00 16.9 3 Sudoeste 14 Noroeste 0 -- -- 52
2019-06-09 07:00:00 17.2 2 Sudoeste 14 Oeste 0 -- -- 51
2019-06-09 06:00:00 17.9 4 Sudoeste 24 Oeste 0 -- -- 49
2019-06-09 05:00:00 18.7 9 Oeste 27 Oeste 0 -- -- 47
2019-06-09 04:00:00 19.6 9 Oeste 27 Oeste 0 -- -- 46
2019-06-09 03:00:00 20.5 8 Sudoeste 31 Oeste 0 -- -- 46
2019-06-09 02:00:00 21.4 8 Oeste 19 Oeste 0 -- -- 44
2019-06-09 01:00:00 22.1 4 Sudoeste 19 Oeste 0 -- -- 42
2019-06-09 00:00:00 23.2 8 Oeste 30 Oeste 0 -- -- 38
2019-06-08 23:00:00 24 3 Sudoeste 18 Sudoeste 0 -- -- 34
2019-06-08 22:00:00 25.2 5 Oeste 23 Oeste 0 -- -- 32
2019-06-08 21:00:00 26.4 8 Oeste 29 Oeste 0 -- -- 30
2019-06-08 20:00:00 27.7 15 Oeste 29 Oeste 0 -- -- 29
2019-06-08 19:00:00 29.5 12 Oeste 28 Oeste 0 -- -- 25
2019-06-08 18:00:00 30.8 9 Oeste 27 Oeste 0 -- -- 22
2019-06-08 17:00:00 30.6 10 Oeste 26 Oeste 0 -- -- 22
2019-06-08 16:00:00 30.4 8 Noroeste 24 Oeste 0 -- -- 22
2019-06-08 15:00:00 30 9 Oeste 21 Noroeste 0 -- -- 21
2019-06-08 14:00:00 28.1 6 Norte 14 Oeste 0 -- -- 23
2019-06-08 13:00:00 27.3 4 Sur 15 Sudeste 0 -- -- 24
2019-06-08 12:00:00 26.5 5 Sur 15 Sur 0 -- -- 25
2019-06-08 11:00:00 24.1 6 Sudeste 12 Sudeste 0 -- -- 27
2019-06-08 10:00:00 20.5 3 Este 9 Sudeste 0 -- -- 29
2019-06-08 09:00:00 18.4 4 Sudeste 10 Sudeste 0 -- -- 30
2019-06-08 08:00:00 16.2 4 Sudeste 10 Sudeste 0 -- -- 30
2019-06-08 07:00:00 16 2 Este 8 Sudeste 0 -- -- 29
2019-06-08 06:00:00 16.6 2 Este 8 Nordeste 0 -- -- 26
2019-06-08 05:00:00 16.8 2 Este 8 Sudeste 0 -- -- 27
2019-06-08 04:00:00 16.6 0 Calma 7 Norte 0 -- -- 28
2019-06-08 03:00:00 18.7 4 Nordeste 12 Nordeste 0 -- -- 24
2019-06-08 02:00:00 19.5 8 Nordeste 15 Nordeste 0 -- -- 23
2019-06-08 01:00:00 19.1 2 Nordeste 10 Nordeste 0 -- -- 28
2019-06-08 00:00:00 19.6 3 Norte 13 Oeste 0 -- -- 27
2019-06-07 23:00:00 20.2 0 Calma 4 Sur 0 -- -- 26
2019-06-07 22:00:00 21.7 0 Calma 9 Noroeste 0 -- -- 28
2019-06-07 21:00:00 25 5 Oeste 14 Noroeste 0 -- -- 25
2019-06-07 20:00:00 26.4 5 Oeste 15 Noroeste 0 -- -- 24
2019-06-07 19:00:00 26.1 4 Sur 19 Norte 0 -- -- 24
2019-06-07 18:00:00 25 5 Oeste 21 Oeste 0 -- -- 27
2019-06-07 17:00:00 23.9 4 Noroeste 17 Oeste 0 -- -- 31
2019-06-07 16:00:00 23.2 9 Noroeste 19 Oeste 0 -- -- 34
2019-06-07 15:00:00 22.2 5 Sudoeste 21 Noroeste 0 -- -- 39
2019-06-07 14:00:00 20.1 9 Oeste 21 Noroeste 0 -- -- 50
2019-06-07 13:00:00 18.9 10 Oeste 20 Oeste 0 -- -- 56
2019-06-07 12:00:00 17.6 5 Oeste 17 Oeste 0 -- -- 60
2019-06-07 11:00:00 15.4 8 Noroeste 15 Noroeste 0 -- -- 68
2019-06-07 10:00:00 14.3 5 Oeste 15 Oeste 0 -- -- 76
2019-06-07 09:00:00 14.1 6 Oeste 13 Oeste 0 -- -- 80
2019-06-07 08:00:00 14.5 2 Sudoeste 19 Oeste 0 -- -- 75
2019-06-07 07:00:00 14.3 3 Sudoeste 18 Oeste 0 -- -- 75
2019-06-07 06:00:00 14 4 Oeste 16 Oeste 0 -- -- 74
2019-06-07 05:00:00 13.8 8 Oeste 23 Oeste 0 -- -- 74
2019-06-07 04:00:00 14.4 4 Sudoeste 17 Oeste 0 -- -- 63
2019-06-07 03:00:00 14.9 4 Sudoeste 21 Oeste 0 -- -- 55
2019-06-07 02:00:00 15.8 4 Sudoeste 33 Oeste 0 -- -- 49
2019-06-07 01:00:00 17 10 Oeste 28 Oeste 0 -- -- 36
2019-06-07 00:00:00 18.4 4 Sudoeste 23 Oeste 0 -- -- 24
2019-06-06 23:00:00 20 4 Sudoeste 27 Oeste 0 -- -- 21
2019-06-06 22:00:00 21.7 12 Oeste 33 Oeste 0 -- -- 22
2019-06-06 21:00:00 24.1 15 Oeste 35 Oeste 0 -- -- 22
2019-06-06 20:00:00 26.5 12 Oeste 32 Oeste 0 -- -- 19
2019-06-06 19:00:00 26.8 16 Oeste 35 Oeste 0 -- -- 19
2019-06-06 18:00:00 27 11 Oeste 39 Noroeste 0 -- -- 19
2019-06-06 17:00:00 27.2 13 Oeste 29 Oeste 0 -- -- 21
2019-06-06 16:00:00 25.9 10 Oeste 25 Oeste 0 -- -- 23
2019-06-06 15:00:00 25.5 12 Oeste 23 Oeste 0 -- -- 24
2019-06-06 14:00:00 24.2 5 Oeste 17 Oeste 0 -- -- 24
2019-06-06 13:00:00 23.1 5 Sudoeste 15 Oeste 0 -- -- 26
2019-06-06 12:00:00 21.3 4 Sudoeste 13 Sudeste 0 -- -- 30
2019-06-06 11:00:00 19.1 4 Este 12 Sudeste 0 -- -- 35
2019-06-06 10:00:00 16.3 3 Este 7 Sur 0 -- -- 46
2019-06-06 09:00:00 14.3 3 Sur 12 Sur 0 -- -- 54
2019-06-06 08:00:00 12.6 4 Sudeste 8 Sudeste 0 -- -- 48
2019-06-06 07:00:00 11.7 0 Calma 5 Sur 0 -- -- 48
2019-06-06 06:00:00 13.1 0 Calma 5 Sur 0 -- -- 42
2019-06-06 05:00:00 13.8 0 Calma 5 Oeste 0 -- -- 40
2019-06-06 04:00:00 14.3 0 Calma 2 Sur 0 -- -- 39
2019-06-06 03:00:00 14.5 0 Calma 4 Noroeste 0 -- -- 38
2019-06-06 02:00:00 16.5 3 Noroeste 10 Norte 0 -- -- 34
2019-06-06 01:00:00 17.4 6 Noroeste 13 Noroeste 0 -- -- 32
2019-06-06 00:00:00 16.8 4 Noroeste 7 Noroeste 0 -- -- 32
2019-06-05 23:00:00 17.4 0 Calma 8 Noroeste 0 -- -- 30
2019-06-05 22:00:00 19 4 Oeste 15 Noroeste 0 -- -- 27
2019-06-05 21:00:00 20.8 9 Noroeste 23 Oeste 0 -- -- 25
2019-06-05 20:00:00 23.5 8 Oeste 23 Oeste 0 -- -- 22
2019-06-05 19:00:00 22.4 12 Oeste 27 Noroeste 0 -- -- 24
2019-06-05 18:00:00 23.6 13 Oeste 30 Noroeste 0 -- -- 22
2019-06-05 17:00:00 23.1 14 Oeste 33 Oeste 0 -- -- 21
2019-06-05 16:00:00 23.5 13 Oeste 31 Oeste 0 -- -- 21
2019-06-05 15:00:00 22.9 13 Noroeste 28 Noroeste 0 -- -- 24
2019-06-05 14:00:00 21.7 13 Oeste 35 Oeste 0 -- -- 27
2019-06-05 13:00:00 20.6 9 Sudoeste 30 Oeste 0 -- -- 36
2019-06-05 12:00:00 18.5 10 Oeste 28 Oeste 0 -- -- 39
2019-06-05 11:00:00 16.9 7 Oeste 30 Oeste 0 -- -- 43
2019-06-05 10:00:00 15.3 13 Oeste 25 Oeste 0 -- -- 49
2019-06-05 09:00:00 14 5 Oeste 23 Oeste 0 -- -- 55
2019-06-05 08:00:00 13.9 12 Oeste 28 Noroeste 0 -- -- 52
2019-06-05 07:00:00 15.2 10 Oeste 31 Noroeste 0 -- -- 43
2019-06-05 06:00:00 16.5 10 Oeste 32 Oeste 0 -- -- 56
2019-06-05 05:00:00 17.4 12 Oeste 27 Oeste 0 -- -- 59
2019-06-05 04:00:00 18.4 6 Sudoeste 22 Oeste 0 -- -- 63
2019-06-05 03:00:00 18.6 5 Sudoeste 20 Oeste 0 -- -- 65
2019-06-05 02:00:00 19.2 6 Sudoeste 26 Oeste 0 -- -- 65
2019-06-05 01:00:00 20.4 8 Sudoeste 32 Oeste 0 -- -- 61
2019-06-05 00:00:00 22.1 10 Sudoeste 39 Oeste 0 -- -- 51
2019-06-04 23:00:00 24 13 Oeste 35 Oeste 0 -- -- 48
2019-06-04 22:00:00 25.6 8 Sudoeste 25 Oeste 0 -- -- 37
2019-06-04 21:00:00 28.1 10 Oeste 33 Oeste 0 -- -- 31
2019-06-04 20:00:00 29.8 14 Oeste 35 Oeste 0 -- -- 26
2019-06-04 19:00:00 31.1 10 Sudoeste 40 Oeste 0 -- -- 23
2019-06-04 18:00:00 31 15 Oeste 44 Oeste 0 -- -- 24
2019-06-04 17:00:00 31.5 9 Oeste 39 Oeste 0 -- -- 24
2019-06-04 16:00:00 31.4 8 Sudoeste 34 Oeste 0 -- -- 18
2019-06-04 15:00:00 30.4 10 Oeste 34 Oeste 0 -- -- 18
2019-06-04 14:00:00 29.2 9 Oeste 23 Noroeste 0 -- -- 24
2019-06-04 13:00:00 27.9 7 Sudoeste 28 Oeste 0 -- -- 26
2019-06-04 12:00:00 26.1 7 Oeste 17 Oeste 0 -- -- 29
2019-06-04 11:00:00 24.1 6 Oeste 15 Oeste 0 -- -- 31
2019-06-04 10:00:00 21.5 3 Sur 6 Oeste 0 -- -- 35
2019-06-04 09:00:00 20 0 Calma 5 Sur 0 -- -- 39
2019-06-04 08:00:00 18.6 2 Sur 5 Sur 0 -- -- 41
2019-06-04 07:00:00 18.4 0 Calma 12 Sudoeste 0 -- -- 40
2019-06-04 06:00:00 18.9 4 Oeste 14 Sudoeste 0 -- -- 39
2019-06-04 05:00:00 20.2 5 Oeste 16 Oeste 0 -- -- 37
2019-06-04 04:00:00 21.3 5 Sudoeste 19 Oeste 0 -- -- 35
2019-06-04 03:00:00 22.3 5 Sudoeste 31 Oeste 0 -- -- 34
2019-06-04 02:00:00 23.7 6 Sudoeste 21 Oeste 0 -- -- 30
2019-06-04 01:00:00 25.4 6 Sudoeste 22 Sudoeste 0 -- -- 25
2019-06-04 00:00:00 27 4 Sudoeste 10 Sudoeste 0 -- -- 21
2019-06-03 23:00:00 27.3 2 Sudoeste 14 Oeste 0 -- -- 21
2019-06-03 22:00:00 29.7 6 Oeste 26 Oeste 0 -- -- 19
2019-06-03 21:00:00 32.5 9 Oeste 22 Oeste 0 -- -- 16
2019-06-03 20:00:00 34.8 10 Oeste 27 Oeste 0 -- -- 14
2019-06-03 19:00:00 35 11 Oeste 27 Oeste 0 -- -- 14
2019-06-03 18:00:00 34.8 7 Oeste 24 Oeste 0 -- -- 14
2019-06-03 17:00:00 35 10 Oeste 25 Oeste 0 -- -- 14
2019-06-03 16:00:00 34.2 9 Oeste 18 Oeste 0 -- -- 15
2019-06-03 15:00:00 32.7 3 Noroeste 15 Oeste 0 -- -- 17
2019-06-03 14:00:00 30.7 6 Noroeste 14 Oeste 0 -- -- 18
2019-06-03 13:00:00 29 7 Noroeste 14 Oeste 0 -- -- 20
2019-06-03 12:00:00 27.1 7 Oeste 14 Oeste 0 -- -- 22
2019-06-03 11:00:00 25.4 3 Oeste 12 Oeste 0 -- -- 26
2019-06-03 10:00:00 22.7 3 Sudoeste 8 Oeste 0 -- -- 30
2019-06-03 09:00:00 20.5 4 Oeste 8 Oeste 0 -- -- 37
2019-06-03 08:00:00 19.2 0 Calma 10 Sur 0 -- -- 36
2019-06-03 07:00:00 18.6 4 Sur 8 Sur 0 -- -- 38
2019-06-03 06:00:00 19.8 0 Calma 5 Oeste 0 -- -- 36
2019-06-03 05:00:00 20.1 0 Calma 14 Noroeste 0 -- -- 34
2019-06-03 04:00:00 22.1 10 Oeste 23 Oeste 0 -- -- 31
2019-06-03 03:00:00 23.4 8 Oeste 22 Oeste 0 -- -- 26
2019-06-03 02:00:00 24.8 6 Oeste 21 Oeste 0 -- -- 22
2019-06-03 01:00:00 25.7 5 Oeste 18 Noroeste 0 -- -- 21
2019-06-03 00:00:00 26.4 5 Sur 17 Sur 0 -- -- 22
2019-06-02 23:00:00 27.8 2 Sudeste 9 Oeste 0 -- -- 24
2019-06-02 22:00:00 29.2 2 Sur 6 Sur 0 -- -- 22
2019-06-02 21:00:00 32.2 3 Sur 11 Sur 0 -- -- 18
2019-06-02 20:00:00 34.1 5 Sudeste 18 Sudeste 0 -- -- 16
2019-06-02 19:00:00 34.5 5 Sudeste 16 Sur 0 -- -- 15
2019-06-02 18:00:00 34.5 4 Este 15 Sudeste 0 -- -- 14
2019-06-02 17:00:00 34.1 6 Sudeste 17 Sudeste 0 -- -- 16
2019-06-02 16:00:00 33.2 4 Sudoeste 17 Noroeste 0 -- -- 17
2019-06-02 15:00:00 32.6 5 Sur 15 Noroeste 0 -- -- 19
2019-06-02 14:00:00 30.9 4 Sur 13 Sur 0 -- -- 21
2019-06-02 13:00:00 29.3 3 Sudoeste 10 Sur 0 -- -- 22
2019-06-02 12:00:00 27.6 3 Sudeste 11 Sudeste 0 -- -- 26
2019-06-02 11:00:00 24.5 3 Nordeste 9 Noroeste 0 -- -- 31
2019-06-02 10:00:00 21.5 3 Nordeste 9 Nordeste 0 -- -- 36
2019-06-02 09:00:00 19.3 2 Sudoeste 6 Sur 0 -- -- 37
2019-06-02 08:00:00 18 3 Sur 9 Sur 0 -- -- 39
2019-06-02 07:00:00 17 3 Sur 5 Sur 0 -- -- 43
2019-06-02 06:00:00 17.9 4 Sur 8 Sur 0 -- -- 40
2019-06-02 05:00:00 19.7 0 Calma 4 Sudeste 0 -- -- 37
2019-06-02 04:00:00 20.2 2 Nordeste 5 Sur 0 -- -- 37
2019-06-02 03:00:00 21.2 0 Calma 6 Sudeste 0 -- -- 34
2019-06-02 02:00:00 21.3 3 Sur 9 Sur 0 -- -- 35
2019-06-02 01:00:00 23 0 Calma 10 Sur 0 -- -- 32
2019-06-02 00:00:00 23.6 3 Sur 12 Sudeste 0 -- -- 30
2019-06-01 23:00:00 26 6 Sudeste 22 Sudeste 0 -- -- 24
2019-06-01 22:00:00 28.8 8 Sudeste 17 Sudeste 0 -- -- 19
2019-06-01 21:00:00 32 6 Este 19 Nordeste 0 -- -- 13
2019-06-01 20:00:00 33.9 5 Este 14 Nordeste 0 -- -- 13
2019-06-01 19:00:00 33.9 5 Sudeste 23 Nordeste 0 -- -- 13
2019-06-01 18:00:00 33.4 5 Sudeste 21 Sudeste 0 -- -- 14
2019-06-01 17:00:00 33.5 7 Sudeste 19 Sur 0 -- -- 14
2019-06-01 16:00:00 33.5 5 Sudeste 22 Sudeste 0 -- -- 15
2019-06-01 15:00:00 32.4 7 Sudeste 22 Sudeste 0 -- -- 18
2019-06-01 14:00:00 30.8 7 Este 19 Sur 0 -- -- 22
2019-06-01 13:00:00 29.4 4 Este 18 Sudeste 0 -- -- 25
2019-06-01 12:00:00 27.4 5 Sudeste 14 Sudeste 0 -- -- 28
2019-06-01 11:00:00 25 5 Este 17 Sudeste 0 -- -- 34
2019-06-01 10:00:00 22.2 5 Este 17 Sudeste 0 -- -- 40
2019-06-01 09:00:00 20.2 3 Este 10 Este 0 -- -- 45
2019-06-01 08:00:00 18.8 3 Este 14 Sudeste 0 -- -- 47
2019-06-01 07:00:00 18.9 9 Sudeste 18 Sudeste 0 -- -- 47
2019-06-01 06:00:00 19.4 5 Sudeste 13 Sudeste 0 -- -- 44
2019-06-01 05:00:00 20.1 2 Este 13 Sudeste 0 -- -- 42
2019-06-01 04:00:00 20.6 3 Este 11 Sudeste 0 -- -- 41
2019-06-01 03:00:00 21.5 5 Sudeste 14 Sudeste 0 -- -- 39
2019-06-01 02:00:00 21.6 4 Sudeste 7 Sudeste 0 -- -- 38
2019-06-01 01:00:00 22.2 0 Calma 19 Sudeste 0 -- -- 36
2019-06-01 00:00:00 23.9 11 Sudeste 23 Sudeste 0 -- -- 33
2019-05-31 23:00:00 24.9 10 Sudeste 27 Sudeste 0 -- -- 31
2019-05-31 22:00:00 26.7 12 Sudeste 25 Sudeste 0 -- -- 26
2019-05-31 21:00:00 29.5 8 Sudeste 18 Sudeste 0 -- -- 20
2019-05-31 20:00:00 32.1 5 Sudeste 15 Este 0 -- -- 17
2019-05-31 19:00:00 32.4 5 Sur 19 Sur 0 -- -- 16
2019-05-31 18:00:00 32.1 4 Sudeste 24 Sudeste 0 -- -- 16
2019-05-31 17:00:00 32.3 7 Sur 21 Sudeste 0 -- -- 16
2019-05-31 16:00:00 31.8 8 Sudeste 18 Sudeste 0 -- -- 15
2019-05-31 15:00:00 30.8 7 Sur 21 Sudeste 0 -- -- 17
2019-05-31 14:00:00 30.4 5 Sudeste 23 Sudeste 0 -- -- 17
2019-05-31 13:00:00 28.5 7 Sudeste 21 Este 0 -- -- 21
2019-05-31 12:00:00 27 6 Sudeste 18 Este 0 -- -- 24
2019-05-31 11:00:00 25 6 Este 15 Sudeste 0 -- -- 28
2019-05-31 10:00:00 22.1 6 Sudeste 17 Sudeste 0 -- -- 34
2019-05-31 09:00:00 19.9 4 Sudeste 15 Sudeste 0 -- -- 41
2019-05-31 08:00:00 18.6 5 Sudeste 14 Sudeste 0 -- -- 45
2019-05-31 07:00:00 17.9 6 Sudeste 11 Sudeste 0 -- -- 46
2019-05-31 06:00:00 18.7 3 Este 11 Sudeste 0 -- -- 43
2019-05-31 05:00:00 19.5 3 Este 10 Sudeste 0 -- -- 41
2019-05-31 04:00:00 19.9 3 Este 14 Sudeste 0 -- -- 39
2019-05-31 03:00:00 20.1 3 Este 12 Sudeste 0 -- -- 39
2019-05-31 02:00:00 20.6 3 Sudeste 9 Sudeste 0 -- -- 38
2019-05-31 01:00:00 21.2 4 Sudeste 18 Sudeste 0 -- -- 37
2019-05-31 00:00:00 22.5 11 Sudeste 21 Sudeste 0 -- -- 35
2019-05-30 23:00:00 23.8 10 Sudeste 22 Este 0 -- -- 32
2019-05-30 22:00:00 25.8 9 Sudeste 21 Sudeste 0 -- -- 28
2019-05-30 21:00:00 28.7 6 Sudeste 14 Sudeste 0 -- -- 23
2019-05-30 20:00:00 30.7 5 Sur 16 Sur 0 -- -- 20
2019-05-30 19:00:00 31.3 4 Sur 17 Este 0 -- -- 18
2019-05-30 18:00:00 30.7 7 Sudeste 16 Sudeste 0 -- -- 19
2019-05-30 17:00:00 31 7 Este 18 Sudeste 0 -- -- 19
2019-05-30 16:00:00 30.2 4 Este 25 Sudeste 0 -- -- 19
2019-05-30 15:00:00 28.9 8 Este 20 Sudeste 0 -- -- 20
2019-05-30 14:00:00 28.4 7 Sudeste 20 Sudeste 0 -- -- 21
2019-05-30 13:00:00 27.1 6 Sudeste 19 Sudeste 0 -- -- 24
2019-05-30 12:00:00 25.3 7 Este 17 Nordeste 0 -- -- 28
2019-05-30 11:00:00 23.2 5 Este 15 Sur 0 -- -- 33
2019-05-30 10:00:00 20.4 5 Este 14 Sudeste 0 -- -- 42
2019-05-30 09:00:00 18.3 5 Este 15 Sudeste 0 -- -- 47
2019-05-30 08:00:00 17 4 Este 16 Sudeste 0 -- -- 51
2019-05-30 07:00:00 17 10 Sudeste 22 Sudeste 0 -- -- 50
2019-05-30 06:00:00 17.7 8 Sudeste 18 Sudeste 0 -- -- 47
2019-05-30 05:00:00 19.2 4 Este 13 Nordeste 0 -- -- 36
2019-05-30 04:00:00 20.4 4 Este 12 Nordeste 0 -- -- 34
2019-05-30 03:00:00 20.8 3 Sudeste 11 Este 0 -- -- 33
2019-05-30 02:00:00 22 2 Este 15 Nordeste 0 -- -- 30
2019-05-30 01:00:00 22.9 6 Este 26 Nordeste 0 -- -- 29
2019-05-30 00:00:00 23.3 9 Nordeste 18 Norte 0 -- -- 28
2019-05-29 23:00:00 24.2 8 Nordeste 17 Nordeste 0 -- -- 25
2019-05-29 22:00:00 25.3 8 Nordeste 21 Norte 0 -- -- 23
2019-05-29 21:00:00 27.2 12 Norte 34 Norte 0 -- -- 20
2019-05-29 20:00:00 28.6 16 Norte 30 Norte 0 -- -- 17
2019-05-29 19:00:00 29.2 14 Norte 29 Norte 0 -- -- 16
2019-05-29 18:00:00 29.2 12 Nordeste 28 Norte 0 -- -- 17
2019-05-29 17:00:00 28.3 13 Norte 30 Norte 0 -- -- 19
2019-05-29 16:00:00 27.9 13 Norte 30 Norte 0 -- -- 19
2019-05-29 15:00:00 27.3 12 Norte 28 Norte 0 -- -- 20
2019-05-29 14:00:00 26.6 12 Nordeste 26 Nordeste 0 -- -- 21
2019-05-29 13:00:00 25.2 12 Nordeste 26 Nordeste 0 -- -- 23
2019-05-29 12:00:00 23.7 13 Nordeste 30 Nordeste 0 -- -- 25
2019-05-29 11:00:00 22 13 Nordeste 26 Nordeste 0 -- -- 29
2019-05-29 10:00:00 20.1 9 Nordeste 21 Nordeste 0 -- -- 34
2019-05-29 09:00:00 18.6 9 Este 22 Nordeste 0 -- -- 38
2019-05-29 08:00:00 17.8 8 Nordeste 27 Nordeste 0 -- -- 38
2019-05-29 07:00:00 18.1 14 Nordeste 26 Nordeste 0 -- -- 35
2019-05-29 06:00:00 18.8 14 Nordeste 29 Nordeste 0 -- -- 35
2019-05-29 05:00:00 19.1 12 Nordeste 34 Nordeste 0 -- -- 37
2019-05-29 04:00:00 19.4 13 Nordeste 30 Nordeste 0 -- -- 40
2019-05-29 03:00:00 20.4 10 Nordeste 28 Nordeste 0 -- -- 33
2019-05-29 02:00:00 22 9 Nordeste 28 Nordeste 0 -- -- 25
2019-05-29 01:00:00 23.8 7 Este 21 Nordeste 0 -- -- 21
2019-05-29 00:00:00 24.9 6 Este 24 Nordeste 0 -- -- 20
2019-05-28 23:00:00 25.9 10 Nordeste 27 Nordeste 0 -- -- 20
2019-05-28 22:00:00 27.3 17 Nordeste 34 Nordeste 0 -- -- 21
2019-05-28 21:00:00 30 10 Norte 21 Norte 0 -- -- 24
2019-05-28 20:00:00 31.4 13 Norte 25 Noroeste 0 -- -- 22
2019-05-28 19:00:00 32 10 Norte 23 Sudoeste 0 -- -- 21
2019-05-28 18:00:00 32.2 12 Noroeste 25 Norte 0 -- -- 21
2019-05-28 17:00:00 31.8 5 Nordeste 21 Norte 0 -- -- 22
2019-05-28 16:00:00 31.7 9 Noroeste 23 Norte 0 -- -- 22
2019-05-28 15:00:00 30.9 9 Norte 21 Norte 0 -- -- 23
2019-05-28 14:00:00 30.2 6 Nordeste 18 Nordeste 0 -- -- 25
2019-05-28 13:00:00 29.3 3 Este 16 Nordeste 0 -- -- 28
2019-05-28 12:00:00 28.1 4 Sudeste 18 Nordeste 0 -- -- 31
2019-05-28 11:00:00 25.2 5 Norte 13 Nordeste 0 -- -- 34
2019-05-28 10:00:00 22.2 4 Nordeste 9 Nordeste 0 -- -- 42
2019-05-28 09:00:00 20.5 2 Este 11 Sudeste 0 -- -- 44
2019-05-28 08:00:00 18.9 7 Sudeste 12 Sudeste 0 -- -- 46
2019-05-28 07:00:00 18.4 0 Calma 4 Sur 0 -- -- 53
2019-05-28 06:00:00 19.5 0 Calma 6 Oeste 0 -- -- 49
2019-05-28 05:00:00 20.3 0 Calma 11 Oeste 0 -- -- 45
2019-05-28 04:00:00 21.3 0 Calma 10 Oeste 0 -- -- 42
2019-05-28 03:00:00 22.5 3 Sudoeste 15 Oeste 0 -- -- 38
2019-05-28 02:00:00 23.9 3 Sudoeste 15 Oeste 0 -- -- 36
2019-05-28 01:00:00 24.8 4 Sudoeste 14 Oeste 0 -- -- 35
2019-05-28 00:00:00 24.8 3 Sudoeste 14 Oeste 0 -- -- 33
2019-05-27 23:00:00 26.2 5 Oeste 17 Oeste 0 -- -- 29
2019-05-27 22:00:00 27.5 8 Oeste 19 Oeste 0 -- -- 27
2019-05-27 21:00:00 29.4 9 Oeste 25 Oeste 0 -- -- 24
2019-05-27 20:00:00 31.4 8 Oeste 23 Oeste 0 -- -- 22
2019-05-27 19:00:00 31.9 5 Sudoeste 18 Oeste 0 -- -- 21
2019-05-27 18:00:00 30.9 7 Oeste 23 Oeste 0 -- -- 22
2019-05-27 17:00:00 31 6 Oeste 22 Noroeste 0 -- -- 23
2019-05-27 16:00:00 31 5 Sudoeste 22 Oeste 0 -- -- 23
2019-05-27 15:00:00 29.8 6 Oeste 23 Oeste 0 -- -- 24
2019-05-27 14:00:00 28.4 4 Oeste 17 Oeste 0 -- -- 26
2019-05-27 13:00:00 27.3 5 Oeste 14 Oeste 0 -- -- 27
2019-05-27 12:00:00 25 3 Sudoeste 11 Sudeste 0 -- -- 33
2019-05-27 11:00:00 22.7 3 Sur 10 Sur 0 -- -- 37
2019-05-27 10:00:00 19.6 5 Sudeste 10 Sudeste 0 -- -- 43
2019-05-27 09:00:00 18.1 2 Norte 5 Noroeste 0 -- -- 50
2019-05-27 08:00:00 16.5 0 Calma 6 Sur 0 -- -- 51
2019-05-27 07:00:00 16.4 2 Sur 6 Sur 0 -- -- 51
2019-05-27 06:00:00 17.2 0 Calma 10 Sur 0 -- -- 41
2019-05-27 05:00:00 18.2 5 Sur 11 Oeste 0 -- -- 34
2019-05-27 04:00:00 20.1 2 Nordeste 5 Norte 0 -- -- 30
2019-05-27 03:00:00 20.8 3 Nordeste 6 Sudeste 0 -- -- 28
2019-05-27 02:00:00 20.7 0 Calma 5 Sudeste 0 -- -- 28
2019-05-27 01:00:00 23.3 4 Este 11 Nordeste 0 -- -- 24
2019-05-27 00:00:00 23.7 5 Nordeste 12 Nordeste 0 -- -- 23
2019-05-26 23:00:00 24.2 5 Nordeste 17 Nordeste 0 -- -- 21
2019-05-26 22:00:00 24.8 9 Nordeste 20 Nordeste 0 -- -- 20
2019-05-26 21:00:00 26.7 11 Nordeste 24 Norte 0 -- -- 19
2019-05-26 20:00:00 27.8 12 Norte 24 Nordeste 0 -- -- 17
2019-05-26 19:00:00 28.7 8 Norte 27 Norte 0 -- -- 16
2019-05-26 18:00:00 27.9 9 Norte 24 Norte 0 -- -- 17
2019-05-26 17:00:00 27.7 9 Nordeste 27 Norte 0 -- -- 17
2019-05-26 16:00:00 27 6 Norte 24 Nordeste 0 -- -- 18
2019-05-26 15:00:00 26.6 11 Noroeste 23 Noroeste 0 -- -- 21
2019-05-26 14:00:00 25.3 8 Nordeste 18 Norte 0 -- -- 31
2019-05-26 13:00:00 24 7 Noroeste 16 Norte 0 -- -- 35
2019-05-26 12:00:00 22.9 5 Sudeste 13 Sudeste 0 -- -- 38
2019-05-26 11:00:00 21.5 5 Este 18 Sudeste 0 -- -- 41
2019-05-26 10:00:00 18.5 4 Este 12 Sudeste 0 -- -- 48
2019-05-26 09:00:00 17.4 4 Sudeste 13 Sudeste 0 -- -- 48
2019-05-26 08:00:00 16.2 0 Calma 6 Sudeste 0 -- -- 54
2019-05-26 07:00:00 15.4 2 Sur 7 Sur 0 -- -- 54
2019-05-26 06:00:00 17.4 6 Sudeste 10 Sudeste 0 -- -- 52
2019-05-26 05:00:00 18 2 Este 4 Este 0 -- -- 50
2019-05-26 04:00:00 18.4 3 Este 13 Sudeste 0 -- -- 46
2019-05-26 03:00:00 19 6 Sudeste 12 Este 0 -- -- 41
2019-05-26 02:00:00 19.8 3 Este 19 Nordeste 0 -- -- 37
2019-05-26 01:00:00 21 9 Nordeste 18 Nordeste 0 -- -- 33
2019-05-26 00:00:00 21.5 12 Nordeste 19 Nordeste 0 -- -- 31
2019-05-25 23:00:00 22.1 8 Nordeste 15 Norte 0 -- -- 30
2019-05-25 22:00:00 23.2 5 Norte 22 Noroeste 0 -- -- 29
2019-05-25 21:00:00 24.6 10 Norte 20 Norte 0 -- -- 27
2019-05-25 20:00:00 26.1 12 Norte 21 Nordeste 0 -- -- 25
2019-05-25 19:00:00 25.7 7 Norte 23 Norte 0 -- -- 26
2019-05-25 18:00:00 26.6 9 Norte 22 Oeste 0 -- -- 27
2019-05-25 17:00:00 26.1 8 Nordeste 21 Norte 0 -- -- 29
2019-05-25 16:00:00 24.7 8 Norte 24 Nordeste 0 -- -- 32
2019-05-25 15:00:00 24.4 8 Nordeste 25 Norte 0 -- -- 34
2019-05-25 14:00:00 22.7 9 Norte 21 Nordeste 0 -- -- 37
2019-05-25 13:00:00 21.8 11 Nordeste 27 Nordeste 0 -- -- 40
2019-05-25 12:00:00 20.5 10 Nordeste 26 Nordeste 0 -- -- 44
2019-05-25 11:00:00 19.2 12 Nordeste 25 Nordeste 0 -- -- 47
2019-05-25 10:00:00 16.9 12 Nordeste 21 Nordeste 0 -- -- 57
2019-05-25 09:00:00 15.1 10 Nordeste 19 Norte 0 -- -- 63
2019-05-25 08:00:00 14 9 Nordeste 19 Nordeste 0 -- -- 70
2019-05-25 07:00:00 14.5 9 Nordeste 14 Nordeste 0 -- -- 66
2019-05-25 06:00:00 14.7 2 Este 13 Sudeste 0 -- -- 66
2019-05-25 05:00:00 15.6 3 Este 19 Nordeste 0 -- -- 63
2019-05-25 04:00:00 16.2 7 Este 19 Nordeste 0 -- -- 61
2019-05-25 03:00:00 16.4 6 Sudeste 17 Nordeste 0 -- -- 62
2019-05-25 02:00:00 17.8 8 Este 19 Nordeste 0 -- -- 58
2019-05-25 01:00:00 18.8 4 Este 17 Nordeste 0 -- -- 54
2019-05-25 00:00:00 19.8 8 Este 21 Nordeste 0 -- -- 51
2019-05-24 23:00:00 20.9 8 Nordeste 24 Nordeste 0 -- -- 48
2019-05-24 22:00:00 22.5 8 Este 33 Nordeste 0 -- -- 44
2019-05-24 21:00:00 24.3 17 Nordeste 36 Nordeste 0 -- -- 36
2019-05-24 20:00:00 26.6 18 Nordeste 34 Nordeste 0 -- -- 30
2019-05-24 19:00:00 26.8 4 Nordeste 15 Sur 0 -- -- 29
2019-05-24 18:00:00 28.4 6 Oeste 17 Oeste 0 -- -- 25
2019-05-24 17:00:00 26.8 9 Nordeste 19 Oeste 0 -- -- 27
2019-05-24 16:00:00 26.7 8 Noroeste 17 Noroeste 0 -- -- 29
2019-05-24 15:00:00 25.2 6 Oeste 17 Oeste 0 -- -- 33
2019-05-24 14:00:00 24.4 5 Oeste 14 Noroeste 0 -- -- 36
2019-05-24 13:00:00 22.9 7 Oeste 16 Oeste 0 -- -- 38
2019-05-24 12:00:00 21.5 5 Oeste 12 Oeste 0 -- -- 42
2019-05-24 11:00:00 19.7 3 Noroeste 7 Noroeste 0 -- -- 48
2019-05-24 10:00:00 18.2 0 Calma 6 Oeste 0 -- -- 50
2019-05-24 09:00:00 17.7 0 Calma 8 Oeste 0 -- -- 52
2019-05-24 08:00:00 17.4 2 Oeste 7 Oeste 0 -- -- 51
2019-05-24 07:00:00 17.4 0 Calma 8 Oeste 0 -- -- 49
2019-05-24 06:00:00 18.2 0 Calma 9 Sur 0 -- -- 48
2019-05-24 05:00:00 19 2 Sudoeste 8 Oeste 0 -- -- 46
2019-05-24 04:00:00 20.1 2 Sudoeste 12 Noroeste 0 -- -- 40
2019-05-24 03:00:00 20.9 3 Sur 14 Sur 0 -- -- 39
2019-05-24 02:00:00 22.1 3 Sur 9 Sur 0 -- -- 36
2019-05-24 01:00:00 23.4 2 Sudoeste 12 Oeste 0 -- -- 31
2019-05-24 00:00:00 24.3 6 Oeste 19 Oeste 0 -- -- 29
2019-05-23 23:00:00 25.2 8 Oeste 22 Oeste 0 -- -- 27
2019-05-23 22:00:00 26.1 3 Sudoeste 12 Oeste 0 -- -- 26
2019-05-23 21:00:00 28.3 3 Sudoeste 17 Oeste 0 -- -- 22
2019-05-23 20:00:00 31.1 4 Sudoeste 18 Oeste 0 -- -- 18
2019-05-23 19:00:00 30.7 5 Noroeste 22 Noroeste 0 -- -- 19
2019-05-23 18:00:00 30.7 11 Oeste 23 Oeste 0 -- -- 20
2019-05-23 17:00:00 30.1 10 Oeste 25 Oeste 0 -- -- 22
2019-05-23 16:00:00 30.3 8 Oeste 23 Noroeste 0 -- -- 22
2019-05-23 15:00:00 28.9 5 Oeste 16 Norte 0 -- -- 24
2019-05-23 14:00:00 27.9 4 Noroeste 15 Noroeste 0 -- -- 29
2019-05-23 13:00:00 26 5 Oeste 13 Oeste 0 -- -- 32
2019-05-23 12:00:00 24.3 3 Oeste 12 Noroeste 0 -- -- 35
2019-05-23 11:00:00 22.5 3 Sudoeste 12 Oeste 0 -- -- 37
2019-05-23 10:00:00 19.8 2 Oeste 10 Oeste 0 -- -- 46
2019-05-23 09:00:00 18.8 3 Oeste 6 Oeste 0 -- -- 49
2019-05-23 08:00:00 17.1 0 Calma 4 Noroeste 0 -- -- 55
2019-05-23 07:00:00 16.4 2 Noroeste 6 Oeste 0 -- -- 55
2019-05-23 06:00:00 17.6 4 Oeste 12 Oeste 0 -- -- 51
2019-05-23 05:00:00 18.6 8 Oeste 15 Oeste 0 -- -- 48
2019-05-23 04:00:00 19.5 5 Oeste 19 Oeste 0 -- -- 43
2019-05-23 03:00:00 20.8 8 Oeste 20 Oeste 0 -- -- 38
2019-05-23 02:00:00 21.6 5 Oeste 16 Oeste 0 -- -- 37
2019-05-23 01:00:00 22 4 Sudoeste 14 Oeste 0 -- -- 36
2019-05-23 00:00:00 21.5 2 Sudoeste 5 Oeste 0 -- -- 32
2019-05-22 23:00:00 22.7 0 Calma 8 Oeste 0 -- -- 30
2019-05-22 22:00:00 23.9 2 Sudoeste 13 Oeste 0 -- -- 27
2019-05-22 21:00:00 27.7 5 Oeste 16 Oeste 0 -- -- 22
2019-05-22 20:00:00 28.4 2 Sudoeste 13 Oeste 0 -- -- 22
2019-05-22 19:00:00 30.2 5 Oeste 19 Oeste 0 -- -- 20
2019-05-22 18:00:00 28.8 3 Sudeste 16 Oeste 0 -- -- 21
2019-05-22 17:00:00 29 8 Oeste 15 Oeste 0 -- -- 21
2019-05-22 16:00:00 28.4 4 Sur 30 Noroeste 0 -- -- 22
2019-05-22 15:00:00 27.9 5 Oeste 19 Sur 0 -- -- 26
2019-05-22 14:00:00 26.7 6 Sudeste 15 Sudoeste 0 -- -- 28
2019-05-22 13:00:00 25 3 Noroeste 12 Noroeste 0 -- -- 37
2019-05-22 12:00:00 23.1 5 Sudoeste 13 Oeste 0 -- -- 42
2019-05-22 11:00:00 21.1 4 Sudoeste 11 Noroeste 0 -- -- 48
2019-05-22 10:00:00 18.3 3 Sudoeste 9 Noroeste 0 -- -- 59
2019-05-22 09:00:00 16.9 3 Sudeste 9 Sudeste 0 -- -- 62
2019-05-22 08:00:00 15.3 2 Sudeste 5 Sudeste 0 -- -- 68
2019-05-22 07:00:00 14.3 0 Calma 6 Oeste 0 -- -- 69
2019-05-22 06:00:00 14.9 3 Oeste 8 Oeste 0 -- -- 65
2019-05-22 05:00:00 15.8 0 Calma 22 Oeste 0 -- -- 62
2019-05-22 04:00:00 16.8 4 Sudoeste 12 Oeste 0 -- -- 58
2019-05-22 03:00:00 17.6 2 Sudoeste 13 Sudeste 0 -- -- 55
2019-05-22 02:00:00 18.3 4 Sur 11 Sur 0 -- -- 50
2019-05-22 01:00:00 19.5 3 Sudoeste 12 Oeste 0 -- -- 46
2019-05-22 00:00:00 19.5 2 Oeste 8 Oeste 0 -- -- 40
2019-05-21 23:00:00 20.8 4 Oeste 9 Oeste 0 -- -- 37
2019-05-21 22:00:00 21.8 2 Sudoeste 10 Noroeste 0 -- -- 34
2019-05-21 21:00:00 24.6 5 Oeste 19 Oeste 0 -- -- 29
2019-05-21 20:00:00 25 4 Norte 11 Noroeste 0 -- -- 29
2019-05-21 19:00:00 25 3 Noroeste 12 Oeste 0 -- -- 28
2019-05-21 18:00:00 25.7 6 Oeste 20 Oeste 0 -- -- 26
2019-05-21 17:00:00 26.2 4 Sudoeste 21 Oeste 0 -- -- 25
2019-05-21 16:00:00 26.4 6 Sudoeste 21 Oeste 0 -- -- 26
2019-05-21 15:00:00 25.5 9 Oeste 24 Oeste 0 -- -- 26
2019-05-21 14:00:00 24.6 7 Oeste 17 Oeste 0 -- -- 29
2019-05-21 13:00:00 22.9 5 Sur 13 Noroeste 0 -- -- 33
2019-05-21 12:00:00 20.8 5 Oeste 14 Oeste 0 -- -- 42
2019-05-21 11:00:00 18.4 5 Noroeste 13 Oeste 0 -- -- 51
2019-05-21 10:00:00 16.3 4 Sudoeste 13 Noroeste 0 -- -- 59
2019-05-21 09:00:00 15.6 3 Oeste 12 Oeste 0 -- -- 61
2019-05-21 08:00:00 14.3 4 Oeste 12 Oeste 0 -- -- 64
2019-05-21 07:00:00 14 0 Calma 6 Sur 0 -- -- 61
2019-05-21 06:00:00 14.8 4 Oeste 9 Oeste 0 -- -- 57
2019-05-21 05:00:00 15.2 3 Sudoeste 17 Oeste 0 -- -- 53
2019-05-21 04:00:00 16.1 5 Sudoeste 18 Oeste 0 -- -- 50
2019-05-21 03:00:00 16.8 4 Sudoeste 13 Oeste 0 -- -- 48
2019-05-21 02:00:00 17.6 4 Sudoeste 21 Oeste 0 -- -- 46
2019-05-21 01:00:00 18.6 5 Sudoeste 14 Oeste 0 -- -- 40
2019-05-21 00:00:00 20.2 6 Sudoeste 21 Oeste 0 -- -- 33